sensor_id;sensor_type;location;lat;lon;timestamp;pressure;altitude;pressure_sealevel;temperature;humidity
13312;BME280;34033;48.672;9.376;2023-03-17T00:00:18;98293.75;;;7.33;62.58
13312;BME280;34033;48.672;9.376;2023-03-17T00:02:45;98298.91;;;7.31;63.06
13312;BME280;34033;48.672;9.376;2023-03-17T00:05:22;98300.88;;;7.31;62.57
13312;BME280;34033;48.672;9.376;2023-03-17T00:07:49;98292.03;;;7.25;62.79
13312;BME280;34033;48.672;9.376;2023-03-17T00:10:23;98299.94;;;7.23;62.66
13312;BME280;34033;48.672;9.376;2023-03-17T00:12:50;98292.34;;;7.20;62.83
13312;BME280;34033;48.672;9.376;2023-03-17T00:15:18;98297.47;;;7.18;62.57
13312;BME280;34033;48.672;9.376;2023-03-17T00:17:45;98294.31;;;7.20;63.13
13312;BME280;34033;48.672;9.376;2023-03-17T00:20:31;98287.47;;;7.13;62.50
13312;BME280;34033;48.672;9.376;2023-03-17T00:23:01;98282.28;;;7.12;62.86
13312;BME280;34033;48.672;9.376;2023-03-17T00:25:33;98286.25;;;7.11;62.85
13312;BME280;34033;48.672;9.376;2023-03-17T00:28:00;98272.22;;;7.04;63.04
13312;BME280;34033;48.672;9.376;2023-03-17T00:30:27;98270.16;;;7.01;63.03
13312;BME280;34033;48.672;9.376;2023-03-17T00:32:55;98264.63;;;7.01;63.36
13312;BME280;34033;48.672;9.376;2023-03-17T00:35:26;98264.63;;;7.01;63.03
13312;BME280;34033;48.672;9.376;2023-03-17T00:37:53;98260.25;;;7.00;63.52
13312;BME280;34033;48.672;9.376;2023-03-17T00:40:27;98260.16;;;6.96;63.17
13312;BME280;34033;48.672;9.376;2023-03-17T00:42:53;98259.75;;;6.94;63.63
13312;BME280;34033;48.672;9.376;2023-03-17T00:45:20;98251.78;;;6.93;63.90
13312;BME280;34033;48.672;9.376;2023-03-17T00:47:47;98252.94;;;6.92;64.16
13312;BME280;34033;48.672;9.376;2023-03-17T00:50:16;98255.72;;;6.92;64.28
13312;BME280;34033;48.672;9.376;2023-03-17T00:52:43;98258.16;;;6.93;64.51
13312;BME280;34033;48.672;9.376;2023-03-17T00:55:09;98249.38;;;6.91;64.70
13312;BME280;34033;48.672;9.376;2023-03-17T00:57:36;98238.63;;;6.90;64.27
13312;BME280;34033;48.672;9.376;2023-03-17T01:00:03;98239.81;;;6.89;64.39
13312;BME280;34033;48.672;9.376;2023-03-17T01:02:29;98242.09;;;6.83;64.27
13312;BME280;34033;48.672;9.376;2023-03-17T01:04:55;98233.75;;;6.83;64.62
13312;BME280;34033;48.672;9.376;2023-03-17T01:07:21;98238.94;;;6.85;64.73
13312;BME280;34033;48.672;9.376;2023-03-17T01:09:46;98245.66;;;6.84;64.95
13312;BME280;34033;48.672;9.376;2023-03-17T01:12:12;98238.13;;;6.84;64.68
13312;BME280;34033;48.672;9.376;2023-03-17T01:14:38;98225.00;;;6.81;64.79
13312;BME280;34033;48.672;9.376;2023-03-17T01:17:15;98219.06;;;6.83;64.98
13312;BME280;34033;48.672;9.376;2023-03-17T01:19:42;98218.25;;;6.82;64.64
13312;BME280;34033;48.672;9.376;2023-03-17T01:22:08;98210.28;;;6.81;64.73
13312;BME280;34033;48.672;9.376;2023-03-17T01:24:34;98202.31;;;6.79;64.80
13312;BME280;34033;48.672;9.376;2023-03-17T01:27:00;98211.91;;;6.82;64.54
13312;BME280;34033;48.672;9.376;2023-03-17T01:29:25;98205.53;;;6.81;64.67
13312;BME280;34033;48.672;9.376;2023-03-17T01:31:51;98209.47;;;6.80;64.79
13312;BME280;34033;48.672;9.376;2023-03-17T01:34:17;98208.28;;;6.78;64.63
13312;BME280;34033;48.672;9.376;2023-03-17T01:36:43;98213.38;;;6.76;64.48
13312;BME280;34033;48.672;9.376;2023-03-17T01:39:08;98213.75;;;6.74;64.94
13312;BME280;34033;48.672;9.376;2023-03-17T01:41:34;98209.75;;;6.72;64.80
13312;BME280;34033;48.672;9.376;2023-03-17T01:43:59;98208.81;;;6.64;65.25
13312;BME280;34033;48.672;9.376;2023-03-17T01:46:28;98216.69;;;6.62;65.76
13312;BME280;34033;48.672;9.376;2023-03-17T01:53:54;98203.25;;;6.64;66.07
13312;BME280;34033;48.672;9.376;2023-03-17T01:56:20;98199.31;;;6.65;65.62
13312;BME280;34033;48.672;9.376;2023-03-17T01:58:49;98204.50;;;6.66;65.83
13312;BME280;34033;48.672;9.376;2023-03-17T02:01:16;98203.63;;;6.62;65.88
13312;BME280;34033;48.672;9.376;2023-03-17T02:03:42;98204.31;;;6.56;65.65
13312;BME280;34033;48.672;9.376;2023-03-17T02:06:10;98199.53;;;6.56;66.13
13312;BME280;34033;48.672;9.376;2023-03-17T02:08:36;98193.22;;;6.56;66.00
13312;BME280;34033;48.672;9.376;2023-03-17T02:11:02;98201.09;;;6.54;65.95
13312;BME280;34033;48.672;9.376;2023-03-17T02:13:29;98197.47;;;6.50;66.25
13312;BME280;34033;48.672;9.376;2023-03-17T02:15:55;98198.13;;;6.43;66.23
13312;BME280;34033;48.672;9.376;2023-03-17T02:18:21;98192.44;;;6.36;66.75
13312;BME280;34033;48.672;9.376;2023-03-17T02:23:15;98195.34;;;6.43;66.48
13312;BME280;34033;48.672;9.376;2023-03-17T02:25:43;98196.16;;;6.44;66.70
13312;BME280;34033;48.672;9.376;2023-03-17T02:28:14;98196.97;;;6.44;66.22
13312;BME280;34033;48.672;9.376;2023-03-17T02:30:41;98199.34;;;6.46;66.21
13312;BME280;34033;48.672;9.376;2023-03-17T02:33:07;98194.59;;;6.46;66.04
13312;BME280;34033;48.672;9.376;2023-03-17T02:35:32;98189.03;;;6.46;66.37
13312;BME280;34033;48.672;9.376;2023-03-17T02:37:58;98193.00;;;6.45;66.31
13312;BME280;34033;48.672;9.376;2023-03-17T02:40:23;98192.25;;;6.48;66.35
13312;BME280;34033;48.672;9.376;2023-03-17T02:42:49;98198.63;;;6.49;66.53
13312;BME280;34033;48.672;9.376;2023-03-17T02:45:15;98207.31;;;6.47;66.45
13312;BME280;34033;48.672;9.376;2023-03-17T02:47:40;98202.88;;;6.43;66.39
13312;BME280;34033;48.672;9.376;2023-03-17T02:50:08;98199.28;;;6.42;66.22
13312;BME280;34033;48.672;9.376;2023-03-17T02:52:34;98197.69;;;6.41;66.24
13312;BME280;34033;48.672;9.376;2023-03-17T02:54:59;98193.75;;;6.42;66.28
13312;BME280;34033;48.672;9.376;2023-03-17T02:57:25;98194.53;;;6.43;66.40
13312;BME280;34033;48.672;9.376;2023-03-17T02:59:50;98200.09;;;6.43;66.35
13312;BME280;34033;48.672;9.376;2023-03-17T03:02:16;98200.47;;;6.41;66.46
13312;BME280;34033;48.672;9.376;2023-03-17T03:04:42;98203.25;;;6.41;66.65
13312;BME280;34033;48.672;9.376;2023-03-17T03:07:08;98198.03;;;6.40;66.48
13312;BME280;34033;48.672;9.376;2023-03-17T03:09:34;98200.03;;;6.39;66.90
13312;BME280;34033;48.672;9.376;2023-03-17T03:11:59;98192.06;;;6.38;66.93
13312;BME280;34033;48.672;9.376;2023-03-17T03:14:25;98189.31;;;6.38;66.79
13312;BME280;34033;48.672;9.376;2023-03-17T03:16:50;98179.38;;;6.37;66.61
13312;BME280;34033;48.672;9.376;2023-03-17T03:19:16;98190.47;;;6.37;66.96
13312;BME280;34033;48.672;9.376;2023-03-17T03:21:42;98184.91;;;6.37;66.86
13312;BME280;34033;48.672;9.376;2023-03-17T03:24:08;98177.38;;;6.37;66.69
13312;BME280;34033;48.672;9.376;2023-03-17T03:26:33;98173.00;;;6.36;66.70
13312;BME280;34033;48.672;9.376;2023-03-17T03:28:58;98169.06;;;6.37;66.63
13312;BME280;34033;48.672;9.376;2023-03-17T03:31:24;98172.94;;;6.33;66.70
13312;BME280;34033;48.672;9.376;2023-03-17T03:33:51;98165.78;;;6.32;66.27
13312;BME280;34033;48.672;9.376;2023-03-17T03:36:16;98170.91;;;6.29;66.59
13312;BME280;34033;48.672;9.376;2023-03-17T03:38:42;98179.63;;;6.28;66.63
13312;BME280;34033;48.672;9.376;2023-03-17T03:41:08;98187.94;;;6.28;66.42
13312;BME280;34033;48.672;9.376;2023-03-17T03:43:34;98179.97;;;6.26;66.51
13312;BME280;34033;48.672;9.376;2023-03-17T03:46:00;98178.72;;;6.24;66.85
13312;BME280;34033;48.672;9.376;2023-03-17T03:48:26;98173.56;;;6.22;67.53
13312;BME280;34033;48.672;9.376;2023-03-17T03:50:56;98182.25;;;6.21;67.26
13312;BME280;34033;48.672;9.376;2023-03-17T03:53:21;98173.47;;;6.19;67.37
13312;BME280;34033;48.672;9.376;2023-03-17T03:55:47;98171.88;;;6.18;67.17
13312;BME280;34033;48.672;9.376;2023-03-17T03:58:12;98176.19;;;6.15;67.54
13312;BME280;34033;48.672;9.376;2023-03-17T04:00:38;98178.63;;;6.17;66.98
13312;BME280;34033;48.672;9.376;2023-03-17T04:03:03;98187.75;;;6.17;67.08
13312;BME280;34033;48.672;9.376;2023-03-17T04:05:29;98189.72;;;6.17;67.07
13312;BME280;34033;48.672;9.376;2023-03-17T04:07:54;98179.78;;;6.16;66.98
13312;BME280;34033;48.672;9.376;2023-03-17T04:10:20;98178.16;;;6.15;67.14
13312;BME280;34033;48.672;9.376;2023-03-17T04:12:45;98176.13;;;6.12;67.27
13312;BME280;34033;48.672;9.376;2023-03-17T04:15:14;98182.41;;;6.09;67.48
13312;BME280;34033;48.672;9.376;2023-03-17T04:17:40;98174.09;;;6.09;67.30
13312;BME280;34033;48.672;9.376;2023-03-17T04:20:06;98172.84;;;6.06;66.92
13312;BME280;34033;48.672;9.376;2023-03-17T04:22:31;98173.56;;;6.03;67.15
13312;BME280;34033;48.672;9.376;2023-03-17T04:24:56;98176.72;;;6.02;67.13
13312;BME280;34033;48.672;9.376;2023-03-17T04:27:22;98179.44;;;5.98;67.14
13312;BME280;34033;48.672;9.376;2023-03-17T04:29:48;98177.00;;;5.97;67.33
13312;BME280;34033;48.672;9.376;2023-03-17T04:32:14;98172.63;;;5.96;66.95
13312;BME280;34033;48.672;9.376;2023-03-17T04:34:40;98170.16;;;5.91;66.95
13312;BME280;34033;48.672;9.376;2023-03-17T04:37:06;98172.50;;;5.89;67.18
13312;BME280;34033;48.672;9.376;2023-03-17T04:39:32;98171.75;;;5.92;66.88
13312;BME280;34033;48.672;9.376;2023-03-17T04:41:57;98171.34;;;5.90;67.21
13312;BME280;34033;48.672;9.376;2023-03-17T04:44:22;98165.00;;;5.89;67.09
13312;BME280;34033;48.672;9.376;2023-03-17T04:46:48;98162.56;;;5.88;67.11
13312;BME280;34033;48.672;9.376;2023-03-17T04:49:13;98162.09;;;5.85;66.79
13312;BME280;34033;48.672;9.376;2023-03-17T04:51:39;98157.72;;;5.84;66.88
13312;BME280;34033;48.672;9.376;2023-03-17T04:54:05;98160.06;;;5.82;67.08
13312;BME280;34033;48.672;9.376;2023-03-17T04:56:31;98153.66;;;5.78;67.46
13312;BME280;34033;48.672;9.376;2023-03-17T04:58:56;98160.78;;;5.79;67.76
13312;BME280;34033;48.672;9.376;2023-03-17T05:01:21;98153.66;;;5.78;67.60
13312;BME280;34033;48.672;9.376;2023-03-17T05:03:47;98145.53;;;5.70;67.36
13312;BME280;34033;48.672;9.376;2023-03-17T05:06:13;98147.09;;;5.67;67.05
13312;BME280;34033;48.672;9.376;2023-03-17T05:08:38;98145.59;;;5.73;67.05
13312;BME280;34033;48.672;9.376;2023-03-17T05:11:04;98148.22;;;5.85;66.89
13312;BME280;34033;48.672;9.376;2023-03-17T05:13:29;98144.16;;;5.99;67.33
13312;BME280;34033;48.672;9.376;2023-03-17T05:15:55;98138.88;;;6.13;66.90
13312;BME280;34033;48.672;9.376;2023-03-17T05:18:22;98139.06;;;7.51;90.03
13312;BME280;34033;48.672;9.376;2023-03-17T05:20:48;98133.31;;;8.01;83.71
13312;BME280;34033;48.672;9.376;2023-03-17T05:23:13;98137.34;;;7.73;76.04
13312;BME280;34033;48.672;9.376;2023-03-17T05:25:39;98125.06;;;7.44;70.42
13312;BME280;34033;48.672;9.376;2023-03-17T05:28:05;98132.38;;;7.26;67.28
13312;BME280;34033;48.672;9.376;2023-03-17T05:30:32;98127.00;;;7.10;64.46
13312;BME280;34033;48.672;9.376;2023-03-17T05:32:57;98131.53;;;6.96;63.31
13312;BME280;34033;48.672;9.376;2023-03-17T05:35:23;98136.94;;;6.85;63.73
13312;BME280;34033;48.672;9.376;2023-03-17T05:37:49;98138.81;;;6.78;63.79
13312;BME280;34033;48.672;9.376;2023-03-17T05:40:15;98142.50;;;6.62;63.54
13312;BME280;34033;48.672;9.376;2023-03-17T05:42:40;98147.16;;;6.55;64.18
13312;BME280;34033;48.672;9.376;2023-03-17T05:45:07;98151.09;;;6.54;64.23
13312;BME280;34033;48.672;9.376;2023-03-17T05:47:32;98152.72;;;6.55;64.70
13312;BME280;34033;48.672;9.376;2023-03-17T05:49:59;98158.28;;;6.55;65.07
13312;BME280;34033;48.672;9.376;2023-03-17T05:52:25;98157.47;;;6.54;65.39
13312;BME280;34033;48.672;9.376;2023-03-17T05:54:51;98163.81;;;6.55;65.22
13312;BME280;34033;48.672;9.376;2023-03-17T05:57:17;98167.41;;;6.55;65.69
13312;BME280;34033;48.672;9.376;2023-03-17T05:59:43;98162.34;;;6.61;65.45
13312;BME280;34033;48.672;9.376;2023-03-17T06:02:09;98164.81;;;6.66;65.50
13312;BME280;34033;48.672;9.376;2023-03-17T06:04:35;98161.63;;;6.67;65.37
13312;BME280;34033;48.672;9.376;2023-03-17T06:07:01;98154.59;;;6.74;65.31
13312;BME280;34033;48.672;9.376;2023-03-17T06:09:26;98149.13;;;6.77;65.22
13312;BME280;34033;48.672;9.376;2023-03-17T06:11:52;98149.16;;;6.81;64.92
13312;BME280;34033;48.672;9.376;2023-03-17T06:14:17;98150.81;;;6.85;64.92
13312;BME280;34033;48.672;9.376;2023-03-17T06:16:43;98150.91;;;6.89;64.97
13312;BME280;34033;48.672;9.376;2023-03-17T06:19:09;98147.41;;;6.95;64.44
13312;BME280;34033;48.672;9.376;2023-03-17T06:21:34;98147.47;;;6.99;63.82
13312;BME280;34033;48.672;9.376;2023-03-17T06:23:59;98145.50;;;6.99;64.05
13312;BME280;34033;48.672;9.376;2023-03-17T06:26:25;98151.88;;;7.00;63.61
13312;BME280;34033;48.672;9.376;2023-03-17T06:28:51;98156.22;;;7.01;63.56
13312;BME280;34033;48.672;9.376;2023-03-17T06:31:16;98167.78;;;7.03;63.46
13312;BME280;34033;48.672;9.376;2023-03-17T06:33:42;98156.19;;;6.97;63.54
13312;BME280;34033;48.672;9.376;2023-03-17T06:36:08;98155.69;;;6.92;63.70
13312;BME280;34033;48.672;9.376;2023-03-17T06:38:33;98164.47;;;6.94;63.72
13312;BME280;34033;48.672;9.376;2023-03-17T06:40:59;98164.88;;;6.96;63.41
13312;BME280;34033;48.672;9.376;2023-03-17T06:43:24;98166.38;;;6.90;63.52
13312;BME280;34033;48.672;9.376;2023-03-17T06:45:49;98171.19;;;6.93;63.48
13312;BME280;34033;48.672;9.376;2023-03-17T06:48:16;98177.94;;;6.92;64.05
13312;BME280;34033;48.672;9.376;2023-03-17T06:50:42;98178.78;;;6.96;63.93
13312;BME280;34033;48.672;9.376;2023-03-17T06:53:07;98170.22;;;7.08;63.66
13312;BME280;34033;48.672;9.376;2023-03-17T06:55:32;98165.63;;;7.19;63.90
13312;BME280;34033;48.672;9.376;2023-03-17T06:57:58;98168.94;;;7.28;63.27
13312;BME280;34033;48.672;9.376;2023-03-17T07:00:25;98169.06;;;7.35;63.71
13312;BME280;34033;48.672;9.376;2023-03-17T07:02:51;98173.16;;;7.45;63.92
13312;BME280;34033;48.672;9.376;2023-03-17T07:05:17;98163.03;;;7.60;63.39
13312;BME280;34033;48.672;9.376;2023-03-17T07:07:42;98163.19;;;7.74;63.47
13312;BME280;34033;48.672;9.376;2023-03-17T07:10:09;98160.19;;;7.86;62.56
13312;BME280;34033;48.672;9.376;2023-03-17T07:12:36;98157.88;;;7.91;62.84
13312;BME280;34033;48.672;9.376;2023-03-17T07:15:02;98165.03;;;7.92;62.84
13312;BME280;34033;48.672;9.376;2023-03-17T07:17:27;98155.09;;;7.91;62.68
13312;BME280;34033;48.672;9.376;2023-03-17T07:19:54;98160.66;;;7.91;62.76
13312;BME280;34033;48.672;9.376;2023-03-17T07:22:19;98173.88;;;8.02;62.44
13312;BME280;34033;48.672;9.376;2023-03-17T07:24:45;98169.25;;;8.16;62.58
13312;BME280;34033;48.672;9.376;2023-03-17T07:27:13;98167.09;;;8.32;61.75
13312;BME280;34033;48.672;9.376;2023-03-17T07:29:39;98163.19;;;8.41;61.37
13312;BME280;34033;48.672;9.376;2023-03-17T07:32:05;98164.81;;;8.42;59.93
13312;BME280;34033;48.672;9.376;2023-03-17T07:34:33;98161.31;;;8.52;59.71
13312;BME280;34033;48.672;9.376;2023-03-17T07:36:58;98170.50;;;8.56;59.70
13312;BME280;34033;48.672;9.376;2023-03-17T07:39:23;98160.63;;;8.62;58.79
13312;BME280;34033;48.672;9.376;2023-03-17T07:41:49;98158.31;;;8.71;58.58
13312;BME280;34033;48.672;9.376;2023-03-17T07:44:20;98155.56;;;8.74;58.54
13312;BME280;34033;48.672;9.376;2023-03-17T07:46:47;98146.06;;;8.83;59.64
13312;BME280;34033;48.672;9.376;2023-03-17T07:49:12;98153.28;;;8.87;58.58
13312;BME280;34033;48.672;9.376;2023-03-17T07:51:38;98143.78;;;8.99;58.45
13312;BME280;34033;48.672;9.376;2023-03-17T07:54:07;98154.94;;;8.99;57.46
13312;BME280;34033;48.672;9.376;2023-03-17T07:56:32;98158.16;;;9.04;57.85
13312;BME280;34033;48.672;9.376;2023-03-17T07:58:58;98146.25;;;9.07;57.73
13312;BME280;34033;48.672;9.376;2023-03-17T08:01:25;98149.34;;;8.95;56.95
13312;BME280;34033;48.672;9.376;2023-03-17T08:03:51;98150.09;;;8.89;57.48
13312;BME280;34033;48.672;9.376;2023-03-17T08:06:16;98142.53;;;8.89;57.73
13312;BME280;34033;48.672;9.376;2023-03-17T08:08:41;98137.78;;;8.93;57.26
13312;BME280;34033;48.672;9.376;2023-03-17T08:11:07;98136.28;;;9.06;57.80
13312;BME280;34033;48.672;9.376;2023-03-17T08:13:33;98139.88;;;9.10;57.66
13312;BME280;34033;48.672;9.376;2023-03-17T08:15:59;98134.41;;;9.25;56.88
13312;BME280;34033;48.672;9.376;2023-03-17T08:18:25;98132.94;;;9.41;56.98
13312;BME280;34033;48.672;9.376;2023-03-17T08:20:50;98129.78;;;9.50;56.88
13312;BME280;34033;48.672;9.376;2023-03-17T08:23:17;98132.22;;;9.58;56.13
13312;BME280;34033;48.672;9.376;2023-03-17T08:25:43;98133.06;;;9.73;56.47
13312;BME280;34033;48.672;9.376;2023-03-17T08:28:08;98135.44;;;9.64;55.84
13312;BME280;34033;48.672;9.376;2023-03-17T08:30:34;98138.91;;;9.43;55.45
13312;BME280;34033;48.672;9.376;2023-03-17T08:32:59;98136.16;;;9.54;57.06
13312;BME280;34033;48.672;9.376;2023-03-17T08:35:25;98128.59;;;9.54;56.70
13312;BME280;34033;48.672;9.376;2023-03-17T08:37:51;98143.78;;;9.57;56.08
13312;BME280;34033;48.672;9.376;2023-03-17T08:40:17;98142.50;;;9.44;55.98
13312;BME280;34033;48.672;9.376;2023-03-17T08:42:45;98132.97;;;9.52;56.72
13312;BME280;34033;48.672;9.376;2023-03-17T08:45:11;98139.41;;;9.63;57.08
13312;BME280;34033;48.672;9.376;2023-03-17T08:47:36;98131.50;;;9.76;57.33
13312;BME280;34033;48.672;9.376;2023-03-17T08:50:03;98123.97;;;9.90;56.76
13312;BME280;34033;48.672;9.376;2023-03-17T08:52:29;98119.59;;;10.03;56.36
13312;BME280;34033;48.672;9.376;2023-03-17T08:54:54;98122.03;;;10.16;56.08
13312;BME280;34033;48.672;9.376;2023-03-17T08:57:20;98123.28;;;10.22;55.20
13312;BME280;34033;48.672;9.376;2023-03-17T08:59:47;98124.50;;;10.28;55.26
13312;BME280;34033;48.672;9.376;2023-03-17T09:02:12;98116.13;;;10.31;55.27
13312;BME280;34033;48.672;9.376;2023-03-17T09:04:39;98118.53;;;10.40;54.82
13312;BME280;34033;48.672;9.376;2023-03-17T09:07:05;98114.94;;;10.50;55.40
13312;BME280;34033;48.672;9.376;2023-03-17T09:09:32;98120.16;;;10.69;54.91
13312;BME280;34033;48.672;9.376;2023-03-17T09:11:58;98120.16;;;10.83;54.98
13312;BME280;34033;48.672;9.376;2023-03-17T09:14:25;98110.97;;;10.94;54.25
13312;BME280;34033;48.672;9.376;2023-03-17T09:16:51;98114.13;;;11.03;54.24
13312;BME280;34033;48.672;9.376;2023-03-17T09:19:17;98106.16;;;11.12;53.61
13312;BME280;34033;48.672;9.376;2023-03-17T09:21:43;98107.72;;;11.23;53.97
13312;BME280;34033;48.672;9.376;2023-03-17T09:24:09;98102.09;;;11.38;53.12
13312;BME280;34033;48.672;9.376;2023-03-17T09:26:35;98100.44;;;11.47;52.23
13312;BME280;34033;48.672;9.376;2023-03-17T09:29:01;98100.41;;;11.58;52.17
13312;BME280;34033;48.672;9.376;2023-03-17T09:31:27;98094.78;;;11.76;52.41
13312;BME280;34033;48.672;9.376;2023-03-17T09:33:53;98092.34;;;11.88;51.57
13312;BME280;34033;48.672;9.376;2023-03-17T09:36:18;98090.22;;;12.10;51.36
13312;BME280;34033;48.672;9.376;2023-03-17T09:38:44;98084.94;;;12.23;51.03
13312;BME280;34033;48.672;9.376;2023-03-17T09:41:27;98090.03;;;12.38;50.56
13312;BME280;34033;48.672;9.376;2023-03-17T09:49:20;98090.56;;;12.74;48.92
13312;BME280;34033;48.672;9.376;2023-03-17T09:51:48;98091.59;;;12.94;48.48
13312;BME280;34033;48.672;9.376;2023-03-17T09:54:25;98097.06;;;13.12;47.99
13312;BME280;34033;48.672;9.376;2023-03-17T09:57:36;98084.09;;;13.25;47.34
13312;BME280;34033;48.672;9.376;2023-03-17T10:00:17;98088.34;;;13.41;46.63
13312;BME280;34033;48.672;9.376;2023-03-17T10:02:45;98087.75;;;13.56;46.41
13312;BME280;34033;48.672;9.376;2023-03-17T10:05:19;98084.84;;;13.67;45.75
13312;BME280;34033;48.672;9.376;2023-03-17T10:08:01;98077.97;;;13.71;44.33
13312;BME280;34033;48.672;9.376;2023-03-17T10:10:44;98076.25;;;13.81;44.88
13312;BME280;34033;48.672;9.376;2023-03-17T10:16:07;98076.91;;;13.92;42.89
13312;BME280;34033;48.672;9.376;2023-03-17T10:18:43;98070.34;;;14.02;43.29
13312;BME280;34033;48.672;9.376;2023-03-17T10:21:16;98064.22;;;14.11;42.65
13312;BME280;34033;48.672;9.376;2023-03-17T10:23:42;98062.50;;;14.17;43.35
13312;BME280;34033;48.672;9.376;2023-03-17T10:26:28;98052.38;;;14.23;43.67
13312;BME280;34033;48.672;9.376;2023-03-17T10:28:55;98051.84;;;14.32;43.59
13312;BME280;34033;48.672;9.376;2023-03-17T10:31:29;98044.31;;;14.52;42.74
13312;BME280;34033;48.672;9.376;2023-03-17T10:34:06;98047.53;;;14.77;42.83
13312;BME280;34033;48.672;9.376;2023-03-17T10:36:43;98041.22;;;14.93;41.76
13312;BME280;34033;48.672;9.376;2023-03-17T10:39:14;98038.81;;;15.15;49.22
13312;BME280;34033;48.672;9.376;2023-03-17T10:41:51;98036.94;;;15.28;43.09
13312;BME280;34033;48.672;9.376;2023-03-17T10:44:42;98030.97;;;15.45;40.84
13312;BME280;34033;48.672;9.376;2023-03-17T10:47:30;98038.13;;;15.50;39.85
13312;BME280;34033;48.672;9.376;2023-03-17T10:49:57;98029.41;;;15.64;39.81
13312;BME280;34033;48.672;9.376;2023-03-17T10:52:28;98022.34;;;15.76;40.51
13312;BME280;34033;48.672;9.376;2023-03-17T10:55:00;98029.25;;;15.91;40.41
13312;BME280;34033;48.672;9.376;2023-03-17T10:57:25;98020.72;;;16.11;39.28
13312;BME280;34033;48.672;9.376;2023-03-17T10:59:53;98018.47;;;16.22;38.83
13312;BME280;34033;48.672;9.376;2023-03-17T11:02:27;98028.34;;;16.30;39.22
13312;BME280;34033;48.672;9.376;2023-03-17T11:05:18;98033.84;;;16.37;37.68
13312;BME280;34033;48.672;9.376;2023-03-17T11:07:44;98026.34;;;16.47;38.48
13312;BME280;34033;48.672;9.376;2023-03-17T11:10:22;98019.75;;;16.53;38.70
13312;BME280;34033;48.672;9.376;2023-03-17T11:12:54;98020.09;;;16.72;39.10
13312;BME280;34033;48.672;9.376;2023-03-17T11:15:27;98008.47;;;16.86;38.53
13312;BME280;34033;48.672;9.376;2023-03-17T11:18:01;98003.63;;;16.86;38.21
13312;BME280;34033;48.672;9.376;2023-03-17T11:20:46;98007.03;;;16.94;38.50
13312;BME280;34033;48.672;9.376;2023-03-17T11:25:48;98004.13;;;17.26;38.04
13312;BME280;34033;48.672;9.376;2023-03-17T11:28:21;97989.31;;;17.51;38.71
13312;BME280;34033;48.672;9.376;2023-03-17T11:36:23;97963.28;;;17.98;36.62
13312;BME280;34033;48.672;9.376;2023-03-17T11:39:19;97964.66;;;18.06;37.73
13312;BME280;34033;48.672;9.376;2023-03-17T11:49:37;97949.84;;;18.40;37.27
13312;BME280;34033;48.672;9.376;2023-03-17T11:55:18;97935.06;;;18.70;36.53
13312;BME280;34033;48.672;9.376;2023-03-17T11:58:10;97941.97;;;19.03;37.83
13312;BME280;34033;48.672;9.376;2023-03-17T12:00:44;97937.72;;;19.21;37.10
13312;BME280;34033;48.672;9.376;2023-03-17T12:03:30;97932.50;;;19.41;37.35
13312;BME280;34033;48.672;9.376;2023-03-17T12:06:02;97926.78;;;19.32;35.69
13312;BME280;34033;48.672;9.376;2023-03-17T12:08:47;97925.09;;;19.34;36.11
13312;BME280;34033;48.672;9.376;2023-03-17T12:11:25;97921.47;;;19.34;36.07
13312;BME280;34033;48.672;9.376;2023-03-17T12:14:00;97912.88;;;19.46;36.36
13312;BME280;34033;48.672;9.376;2023-03-17T12:16:34;97921.47;;;19.55;36.04
13312;BME280;34033;48.672;9.376;2023-03-17T12:19:12;97921.78;;;19.57;34.86
13312;BME280;34033;48.672;9.376;2023-03-17T12:21:52;97913.16;;;19.61;35.01
13312;BME280;34033;48.672;9.376;2023-03-17T12:27:13;97916.56;;;19.78;35.56
13312;BME280;34033;48.672;9.376;2023-03-17T12:29:43;97902.75;;;19.89;35.12
13312;BME280;34033;48.672;9.376;2023-03-17T12:32:40;97894.59;;;20.00;34.63
13312;BME280;34033;48.672;9.376;2023-03-17T12:37:51;97899.69;;;20.14;34.41
13312;BME280;34033;48.672;9.376;2023-03-17T12:40:21;97897.47;;;20.18;35.00
13312;BME280;34033;48.672;9.376;2023-03-17T12:43:11;97893.47;;;20.37;34.86
13312;BME280;34033;48.672;9.376;2023-03-17T12:54:25;97885.34;;;21.03;32.35
13312;BME280;34033;48.672;9.376;2023-03-17T12:56:52;97882.66;;;21.09;32.16
13312;BME280;34033;48.672;9.376;2023-03-17T12:59:24;97878.09;;;21.20;31.99
13312;BME280;34033;48.672;9.376;2023-03-17T13:02:15;97870.66;;;21.23;30.94
13312;BME280;34033;48.672;9.376;2023-03-17T13:04:50;97874.44;;;21.29;30.51
13312;BME280;34033;48.672;9.376;2023-03-17T13:07:50;97874.28;;;21.33;30.21
13312;BME280;34033;48.672;9.376;2023-03-17T13:23:33;97848.03;;;21.89;34.59
13312;BME280;34033;48.672;9.376;2023-03-17T13:25:58;97843.63;;;21.97;31.37
13312;BME280;34033;48.672;9.376;2023-03-17T13:34:14;97836.91;;;22.09;29.32
13312;BME280;34033;48.672;9.376;2023-03-17T13:42:47;97812.44;;;22.02;28.71
13312;BME280;34033;48.672;9.376;2023-03-17T13:45:46;97814.97;;;22.00;28.21
13312;BME280;34033;48.672;9.376;2023-03-17T13:48:33;97813.84;;;22.07;29.30
13312;BME280;34033;48.672;9.376;2023-03-17T13:51:21;97809.91;;;22.28;29.85
13312;BME280;34033;48.672;9.376;2023-03-17T13:53:52;97807.84;;;22.53;30.19
13312;BME280;34033;48.672;9.376;2023-03-17T14:01:29;97798.94;;;23.13;29.00
13312;BME280;34033;48.672;9.376;2023-03-17T14:03:56;97800.25;;;23.26;29.07
13312;BME280;34033;48.672;9.376;2023-03-17T14:06:27;97796.97;;;23.34;28.49
13312;BME280;34033;48.672;9.376;2023-03-17T14:11:46;97791.91;;;23.52;28.64
13312;BME280;34033;48.672;9.376;2023-03-17T14:22:30;97775.78;;;23.84;27.86
13312;BME280;34033;48.672;9.376;2023-03-17T14:24:59;97776.50;;;23.79;27.69
13312;BME280;34033;48.672;9.376;2023-03-17T14:27:26;97776.97;;;23.78;28.02
13312;BME280;34033;48.672;9.376;2023-03-17T14:29:53;97770.91;;;23.70;27.94
13312;BME280;34033;48.672;9.376;2023-03-17T14:32:20;97771.41;;;23.68;28.85
13312;BME280;34033;48.672;9.376;2023-03-17T14:34:53;97774.88;;;23.58;28.67
13312;BME280;34033;48.672;9.376;2023-03-17T14:37:21;97773.69;;;23.50;28.99
13312;BME280;34033;48.672;9.376;2023-03-17T14:39:49;97765.22;;;23.41;29.49
13312;BME280;34033;48.672;9.376;2023-03-17T14:42:18;97768.19;;;23.32;29.52
13312;BME280;34033;48.672;9.376;2023-03-17T14:44:44;97765.72;;;23.24;29.63